Weather observations for the past three days for
Ray S Miller Army Airfield
Imperial (Metric)
Date Time (cdt) Wind (mph) Vis. (mi.) Weather Sky Cond. Temperature (ºF) Relative Humidity Wind Chill (°F) Heat Index (°F) Pressure Precipitation (in)
Air Dwpt 6 hour altimeter (in) sea level (mb) 1 hr 3 hr 6 hr
Max. Min.
06 04:55 Calm 10.00 A Few Clouds FEW150 63.7 62.4 96% 30.03 1016.7
06 03:55 Calm 9.00 Fair CLR 65.1 63.3 94% 30.01 1016.0
06 02:55 E 3 10.00 Fair CLR 66 63.9 93% 30.01 1016.0
06 00:55 E 3 10.00 Fair CLR 68 64.6 79.2 68 89% 30.03 1016.8
05 23:55 SE 6 10.00 Fair CLR 69.6 65.3 86% 30.02 1016.5
05 22:55 E 6 10.00 Fair CLR 69.8 65.1 85% 30.02 1016.6
05 21:55 SE 3 10.00 Fair CLR 70.2 64.8 83% 30.03 1017.0
05 20:55 E 6 10.00 Fair CLR 71.4 64.6 79% 30.03 1017.0
05 19:55 SE 6 10.00 Fair CLR 75 65.3 72% 77 29.99 1015.5
05 18:55 E 8 10.00 Fair CLR 78.6 64.4 86.5 77 62% 80 29.96 1014.4
05 17:55 E 14 10.00 Fair CLR 81 67.1 63% 83 29.94 1013.8
05 16:55 E 12 10.00 Fair CLR 84.4 68 58% 88 29.97 1014.7
05 15:55 E 10 10.00 Fair CLR 86 66.2 52% 88 29.98 1015.0
05 14:55 SE 7 10.00 Fair CLR 82.8 66.4 58% 85 30 1015.7
05 11:55 E 7 10.00 Partly Cloudy SCT013 73 64.2 74% 30.03 1016.9
05 10:55 E 7 10.00 Overcast OVC008 68.4 63 83% 30.05 1017.6
05 09:55 SE 5 10.00 Overcast OVC005 65.5 62.1 89% 30.05 1017.7
05 08:55 E 7 10.00 Overcast OVC004 63.3 61.2 93% 30.04 1017.4
05 07:55 E 7 10.00 Overcast OVC004 62.8 61.3 95% 30.03 1017.0
05 06:55 SE 6 8.00 Overcast OVC003 62.8 61.5 66.7 62.8 96% 30.01 1016.2
05 05:55 E 8 10.00 Overcast OVC003 63.7 62.2 95% 30 1015.7
05 04:55 E 8 6.00 Fog/Mist OVC003 63.5 62.2 96% 29.97 1014.7
05 03:55 E 8 10.00 Overcast OVC005 64.6 62.4 93% 29.98 1015.1
05 02:55 E 7 10.00 Overcast OVC006 65.5 63.1 92% 29.99 1015.4
05 01:55 Calm 10.00 Overcast OVC008 65.5 62.4 90% 29.99 1015.4
05 00:55 NE 5 10.00 Fair CLR 63.9 61.2 78.6 63.9 91% 29.99 1015.5
04 23:55 E 8 10.00 Partly Cloudy SCT012 66 62.1 87% 29.99 1015.5
04 22:55 E 5 10.00 Partly Cloudy SCT013 66.6 63.5 90% 29.99 1015.6
04 21:55 E 8 10.00 Fair CLR 67.5 63.7 88% 29.98 1015.2
04 20:55 E 6 10.00 Fair CLR 70.3 64.9 83% 29.96 1014.5
04 19:55 E 6 10.00 Fair CLR 73.4 66 78% 29.94 1013.8
04 18:55 NE 10 10.00 Fair CLR 78.8 66.9 84.6 77.7 67% 81 29.93 1013.4
04 17:55 NE 8 10.00 Fair CLR 82.4 67.1 60% 85 29.92 1012.9
04 16:55 N 8 10.00 Fair CLR 83.3 67.8 60% 86 29.92 1012.9
04 15:55 NE 7 10.00 Fair CLR 82.8 68.4 62% 86 29.91 1012.6
04 14:55 NE 8 10.00 A Few Clouds FEW026 81.9 67.5 62% 85 29.91 1012.7
04 13:55 NE 8 10.00 Fair CLR 81.3 67.5 63% 84 29.91 1012.7
04 12:55 N 9 10.00 Overcast BKN017 OVC028 77.7 66.7 78.1 67.1 69% 80 29.92 1013.1
04 11:55 NE 7 10.00 Overcast OVC025 75.7 65.7 71% 77 29.92 1013.1
04 10:55 NE 9 10.00 Overcast OVC013 71.2 64.8 80% 29.91 1012.7
04 09:55 N 7 10.00 Overcast OVC010 71.2 65.8 83% 29.89 1011.9
04 08:55 Calm 10.00 Overcast SCT004 OVC017 69.1 66.4 91% 29.87 1011.3
04 07:55 N 3 10.00 Overcast OVC006 68 65.5 92% 29.87 1011.2
04 06:55 E 3 10.00 Overcast OVC007 67.5 64.4 68 65.5 90% 29.83 1009.8
04 05:55 SE 3 10.00 Overcast OVC008 67.8 63.9 87% 29.82 1009.5
04 04:55 E 3 10.00 Overcast OVC009 67.5 63.5 87% 29.83 1009.8
04 03:55 E 7 10.00 Overcast OVC008 66.2 62.6 88% 29.81 1009.1
04 01:55 NE 14 10.00 Overcast OVC013 66.7 62.4 86% 29.82 1009.5
04 00:55 E 5 10.00 Fair CLR 67.6 63.7 84.4 67.6 87% 29.78 1008.1
03 23:55 E 7 10.00 Fair CLR 69.1 63.7 83% 29.78 1008.1
03 22:55 E 12 10.00 Partly Cloudy SCT047 72 63.9 76% 29.78 1008.2
03 21:55 E 9 10.00 Overcast OVC038 78.1 68.7 73% 80 29.77 1007.8
03 20:55 E 6 10.00 Fair CLR 78.6 69.6 74% 81 29.76 1007.5
03 19:55 SE 8 10.00 Mostly Cloudy FEW039 BKN055 81.3 69.3 67% 85 29.75 1007.1
03 17:55 S 12 10.00 Thunderstorm in Vicinity BKN060 86.9 69.3 56% 91 29.72 1006.1
03 16:55 SE 14 10.00 Partly Cloudy FEW042 SCT050 86.7 68 54% 90 29.72 1006.1
03 15:55 S 14 10.00 A Few Clouds FEW047 88.9 67.8 50% 93 29.71 1005.6
03 14:55 SE 13 10.00 Fair CLR 90.9 67.1 46% 94 29.72 1005.9
03 13:55 SE 12 10.00 A Few Clouds FEW044 86.9 68.7 55% 91 29.74 1006.7
03 12:55 SE 10 10.00 Fair CLR 85.5 68.4 86.4 66.4 57% 89 29.77 1007.8
03 11:55 E 12 10.00 Fair CLR 84.2 68.7 60% 88 29.78 1008.2
03 10:55 SE 9 10.00 Fair CLR 80.4 67.1 64% 83 29.8 1008.9
03 09:55 E 8 10.00 Mostly Cloudy SCT040 BKN049 76.3 64.9 68% 78 29.8 1008.9
03 08:55 E 9 10.00 Fair CLR 73.2 61.5 67% 29.82 1009.6
03 07:55 E 7 10.00 Fair CLR 69.8 59.2 69% 29.82 1009.6
03 06:55 E 5 10.00 Fair CLR 66.2 58.5 70.3 66 76% 29.83 1009.9
03 05:55 NE 6 10.00 Fair CLR 66.9 57.9 73% 29.81 1009.2
Date Time (cdt) Wind (mph) Vis. (mi.) Weather Sky Cond. Air Dwpt Max. Min. Relative Humidity Wind Chill (°F) Heat Index (°F) altimeter (in) sea level (mb) 1 hr 3 hr 6 hr
6 hour
Temperature (ºF) Pressure Precipitation (in)